Time;durP1;ratioP1;P1;durP2;ratioP2;P2;SDS_P1;SDS_P2;PMS_P1;PMS_P2;Temp;Humidity;BMP_temperature;BMP_pressure;BME280_temperature;BME280_humidity;BME280_pressure;Samples;Min_cycle;Max_cycle;Signal;HPM_P1;HPM_P2
2022/09/05 00:02:16;;;;;;;;;;;;;;;21.98;79.62;97641.41;611718;232;64382;-68
2022/09/05 00:04:48;;;;;;;;;;;;;;;21.97;79.67;97647.84;609925;232;64561;-68
2022/09/05 00:07:20;;;;;;;;;;;;;;;21.97;79.72;97637.94;610623;232;62853;-69
2022/09/05 00:09:53;;;;;;;;;;;;;;;21.96;79.73;97636.31;610728;232;66865;-68
2022/09/05 00:12:22;;;;;;;;;;;;;;;21.96;79.79;97630.95;610831;232;66622;-69
2022/09/05 00:15:09;;;;;;;;;;;;;;;21.98;79.78;97644.09;610867;232;63020;-69
2022/09/05 00:17:38;;;;;;;;;;;;;;;21.98;79.71;97646.77;610582;232;66864;-68
2022/09/05 00:20:10;;;;;;;;;;;;;;;21.96;79.72;97641.66;610422;232;66737;-69
2022/09/05 00:22:42;;;;;;;;;;;;;;;21.97;79.71;97645.17;608449;232;64748;-70
2022/09/05 00:25:17;;;;;;;;;;;;;;;21.98;79.77;97649.44;610838;230;66796;-68
2022/09/05 00:27:47;;;;;;;;;;;;;;;21.97;79.73;97647.84;610348;232;66707;-70
2022/09/05 00:30:19;;;;;;;;;;;;;;;21.96;79.73;97655.05;610875;232;66036;-69
2022/09/05 00:32:51;;;;;;;;;;;;;;;21.95;79.72;97651.56;610920;232;64532;-69
2022/09/05 00:35:35;;;;;;;;;;;;;;;21.97;79.70;97650.52;610621;232;66192;-69
2022/09/05 00:38:13;;;;;;;;;;;;;;;21.95;79.70;97651.56;610859;232;65005;-69
2022/09/05 00:41:01;;;;;;;;;;;;;;;21.97;79.73;97650.52;610682;232;66535;-70
2022/09/05 00:43:36;;;;;;;;;;;;;;;21.95;79.72;97640.86;610521;232;67642;-69
2022/09/05 00:46:07;;;;;;;;;;;;;;;21.97;79.71;97650.52;610848;232;65182;-69
2022/09/05 00:48:36;;;;;;;;;;;;;;;21.94;79.75;97649.97;610900;232;66725;-69
2022/09/05 00:51:22;;;;;;;;;;;;;;;21.96;79.73;97652.37;609706;232;67316;-69
2022/09/05 00:53:57;;;;;;;;;;;;;;;21.94;79.77;97643.81;610845;232;65318;-69
2022/09/05 00:56:35;;;;;;;;;;;;;;;21.94;79.73;97652.64;610346;232;64454;-69
2022/09/05 00:59:04;;;;;;;;;;;;;;;21.94;79.72;97649.97;610536;232;65588;-69
2022/09/05 01:01:40;;;;;;;;;;;;;;;21.95;79.69;97650.77;610907;232;64069;-69
2022/09/05 01:04:09;;;;;;;;;;;;;;;21.93;79.72;97651.05;611428;232;66630;-70
2022/09/05 01:06:44;;;;;;;;;;;;;;;21.94;79.70;97654.52;611663;231;67543;-70
2022/09/05 01:09:13;;;;;;;;;;;;;;;21.94;79.68;97652.64;611352;232;64950;-69
2022/09/05 01:11:58;;;;;;;;;;;;;;;21.93;79.71;97651.05;611769;232;67314;-68
2022/09/05 01:14:31;;;;;;;;;;;;;;;21.93;79.70;97656.40;611814;232;66886;-69
2022/09/05 01:17:00;;;;;;;;;;;;;;;21.93;79.74;97653.72;609545;232;62673;-69
2022/09/05 01:19:29;;;;;;;;;;;;;;;21.94;79.77;97649.97;611459;232;66812;-69
2022/09/05 01:22:01;;;;;;;;;;;;;;;21.94;79.72;97649.97;611804;232;66719;-69
2022/09/05 01:24:48;;;;;;;;;;;;;;;21.93;79.77;97648.38;611018;232;66098;-70
2022/09/05 01:27:34;;;;;;;;;;;;;;;21.94;79.77;97657.20;611830;232;68152;-70
2022/09/05 01:30:15;;;;;;;;;;;;;;;21.93;79.73;97653.72;611806;232;67566;-69
2022/09/05 01:33:00;;;;;;;;;;;;;;;21.92;79.74;97652.09;611703;232;66391;-69
2022/09/05 01:35:29;;;;;;;;;;;;;;;21.93;79.73;97663.59;611778;232;64630;-69
2022/09/05 01:37:58;;;;;;;;;;;;;;;21.93;79.82;97659.08;611744;232;66626;-69
2022/09/05 01:40:42;;;;;;;;;;;;;;;21.93;79.74;97653.72;611805;232;66059;-69
2022/09/05 01:43:17;;;;;;;;;;;;;;;21.92;79.77;97651.30;611558;232;67770;-70
2022/09/05 01:45:47;;;;;;;;;;;;;;;21.91;79.75;97650.50;611937;231;66982;-69
2022/09/05 01:48:16;;;;;;;;;;;;;;;21.93;79.72;97647.55;611768;232;62779;-70
2022/09/05 01:50:45;;;;;;;;;;;;;;;21.92;79.73;97649.42;611026;231;64337;-70
2022/09/05 01:53:24;;;;;;;;;;;;;;;21.92;79.73;97652.09;611669;232;66680;-69
2022/09/05 01:55:54;;;;;;;;;;;;;;;21.93;79.67;97645.70;611576;232;62846;-69
2022/09/05 01:58:23;;;;;;;;;;;;;;;21.92;79.77;97643.27;611760;232;68094;-69
2022/09/05 02:00:53;;;;;;;;;;;;;;;21.91;79.68;97642.47;611670;230;65044;-68
2022/09/05 02:03:41;;;;;;;;;;;;;;;21.91;79.67;97645.14;611560;232;62812;-69
2022/09/05 02:06:26;;;;;;;;;;;;;;;21.92;79.67;97649.42;611509;231;64732;-68
2022/09/05 02:08:55;;;;;;;;;;;;;;;21.93;79.69;97647.55;611771;232;65732;-69
2022/09/05 02:11:25;;;;;;;;;;;;;;;21.91;79.71;97647.82;611678;232;65171;-69
2022/09/05 02:13:57;;;;;;;;;;;;;;;21.91;79.70;97650.50;606309;232;67103;-69
2022/09/05 02:16:26;;;;;;;;;;;;;;;21.90;79.73;97648.87;611477;231;67710;-69
2022/09/05 02:19:14;;;;;;;;;;;;;;;21.91;79.69;97653.17;611671;232;66013;-69
2022/09/05 02:21:43;;;;;;;;;;;;;;;21.90;79.66;97648.87;611710;232;64675;-68
2022/09/05 02:24:21;;;;;;;;;;;;;;;21.91;79.74;97649.70;611372;231;64737;-69
2022/09/05 02:26:59;;;;;;;;;;;;;;;21.90;79.76;97654.22;611693;232;63128;-68
2022/09/05 02:29:32;;;;;;;;;;;;;;;21.91;79.78;97647.82;611693;232;67122;-69
2022/09/05 02:32:04;;;;;;;;;;;;;;;21.91;79.68;97650.50;611655;231;67727;-69
2022/09/05 02:34:39;;;;;;;;;;;;;;;21.91;79.78;97645.14;611502;231;62863;-69
2022/09/05 02:37:14;;;;;;;;;;;;;;;21.91;79.75;97633.64;611603;232;67924;-69
2022/09/05 02:39:46;;;;;;;;;;;;;;;21.90;79.81;97646.19;611707;232;67112;-69
2022/09/05 02:42:19;;;;;;;;;;;;;;;21.90;79.76;97651.55;611711;232;62788;-70
2022/09/05 02:44:48;;;;;;;;;;;;;;;21.90;79.73;97648.06;610695;232;67111;-70
2022/09/05 02:47:23;;;;;;;;;;;;;;;21.90;79.73;97640.84;611429;232;67068;-70
2022/09/05 02:50:01;;;;;;;;;;;;;;;21.90;79.73;97646.19;611759;232;64941;-68
2022/09/05 02:52:30;;;;;;;;;;;;;;;21.90;79.76;97640.84;611675;232;65760;-68
2022/09/05 02:54:59;;;;;;;;;;;;;;;21.90;79.71;97646.19;611687;232;66863;-69
2022/09/05 02:57:28;;;;;;;;;;;;;;;21.90;79.72;97642.72;611710;232;65117;-69
2022/09/05 02:59:57;;;;;;;;;;;;;;;21.90;79.82;97643.52;611694;232;64845;-69
2022/09/05 03:02:33;;;;;;;;;;;;;;;21.90;79.79;97642.72;611746;232;64781;-69
2022/09/05 03:05:02;;;;;;;;;;;;;;;21.89;79.78;97644.59;611385;232;63821;-69
2022/09/05 03:07:40;;;;;;;;;;;;;;;21.90;79.81;97640.04;611620;232;64961;-69
2022/09/05 03:10:12;;;;;;;;;;;;;;;21.90;79.80;97637.36;611758;232;64537;-68
2022/09/05 03:12:41;;;;;;;;;;;;;;;21.89;79.80;97639.24;611195;232;66148;-69
2022/09/05 03:15:27;;;;;;;;;;;;;;;21.90;79.72;97653.42;611696;232;67114;-69
2022/09/05 03:17:59;;;;;;;;;;;;;;;21.90;79.71;97642.72;611673;232;67091;-69
2022/09/05 03:20:28;;;;;;;;;;;;;;;21.90;79.80;97650.74;611772;232;64935;-68
2022/09/05 03:23:03;;;;;;;;;;;;;;;21.89;79.80;97641.92;611691;232;67144;-68
2022/09/05 03:25:38;;;;;;;;;;;;;;;21.89;79.71;97641.92;611824;231;66700;-68
2022/09/05 03:28:24;;;;;;;;;;;;;;;21.89;79.64;97647.27;611074;232;65091;-68
2022/09/05 03:30:53;;;;;;;;;;;;;;;21.89;79.69;97652.63;611738;232;64852;-68
2022/09/05 03:33:35;;;;;;;;;;;;;;;21.89;79.65;97652.63;611735;232;64764;-69
2022/09/05 03:36:15;;;;;;;;;;;;;;;21.89;79.72;97652.63;611796;232;63383;-68
2022/09/05 03:38:44;;;;;;;;;;;;;;;21.89;79.77;97654.50;611760;232;66935;-68
2022/09/05 03:41:29;;;;;;;;;;;;;;;21.89;79.63;97660.65;611698;231;67817;-68
2022/09/05 03:43:58;;;;;;;;;;;;;;;21.88;79.75;97669.75;611728;232;62720;-69
2022/09/05 03:46:44;;;;;;;;;;;;;;;21.89;79.81;97673.23;611439;232;67492;-69
2022/09/05 03:49:13;;;;;;;;;;;;;;;21.88;79.78;97680.45;611724;232;64979;-68
2022/09/05 03:51:42;;;;;;;;;;;;;;;21.88;79.82;97677.78;611620;232;63040;-69
2022/09/05 03:54:24;;;;;;;;;;;;;;;21.88;79.71;97688.48;611790;232;64837;-68
2022/09/05 03:56:56;;;;;;;;;;;;;;;21.88;79.70;97684.98;611741;232;66881;-68
2022/09/05 03:59:34;;;;;;;;;;;;;;;21.89;79.74;97697.31;611723;232;62971;-69
2022/09/05 04:02:06;;;;;;;;;;;;;;;21.88;79.67;97696.52;611729;232;64839;-69
2022/09/05 04:04:50;;;;;;;;;;;;;;;21.88;79.71;97699.19;608703;231;66757;-70
2022/09/05 04:07:19;;;;;;;;;;;;;;;21.88;79.69;97701.86;608210;233;66007;-70
2022/09/05 04:09:51;;;;;;;;;;;;;;;21.88;79.58;97704.54;608252;233;64830;-68
2022/09/05 04:12:20;;;;;;;;;;;;;;;21.87;79.68;97713.61;608267;233;66690;-69
2022/09/05 04:14:52;;;;;;;;;;;;;;;21.88;79.74;97719.77;608187;233;66115;-69
2022/09/05 04:17:24;;;;;;;;;;;;;;;21.87;79.74;97705.59;608211;233;64891;-70
2022/09/05 04:19:59;;;;;;;;;;;;;;;21.87;79.72;97702.91;608198;233;64700;-69
2022/09/05 04:22:45;;;;;;;;;;;;;;;21.87;79.74;97702.11;608186;233;64988;-68
2022/09/05 04:25:20;;;;;;;;;;;;;;;21.86;79.76;97714.69;608279;233;64926;-68
2022/09/05 04:28:06;;;;;;;;;;;;;;;21.88;79.79;97714.41;607586;233;66685;-68
2022/09/05 04:30:35;;;;;;;;;;;;;;;21.87;79.75;97720.84;608314;233;65370;-69
2022/09/05 04:33:04;;;;;;;;;;;;;;;21.87;79.69;97712.81;608127;233;65919;-69
2022/09/05 04:35:33;;;;;;;;;;;;;;;21.86;79.65;97714.69;608136;233;65024;-69
2022/09/05 04:38:11;;;;;;;;;;;;;;;21.86;79.62;97719.24;608256;233;64670;-69
2022/09/05 04:40:41;;;;;;;;;;;;;;;21.86;79.60;97717.37;606119;233;67101;-70
2022/09/05 04:43:19;;;;;;;;;;;;;;;21.86;79.65;97722.72;605661;233;66890;-70
2022/09/05 04:45:53;;;;;;;;;;;;;;;21.86;79.69;97725.39;608203;233;64893;-68
2022/09/05 04:48:23;;;;;;;;;;;;;;;21.86;79.71;97733.42;607946;233;64304;-68
2022/09/05 04:51:08;;;;;;;;;;;;;;;21.86;79.65;97733.42;608129;233;66945;-69
2022/09/05 04:53:39;;;;;;;;;;;;;;;21.86;79.65;97729.95;607571;230;63469;-69
2022/09/05 04:56:09;;;;;;;;;;;;;;;21.85;79.66;97731.82;608068;233;66706;-69
2022/09/05 04:58:39;;;;;;;;;;;;;;;21.86;79.64;97735.30;608048;233;64445;-69
2022/09/05 05:03:44;;;;;;;;;;;;;;;21.85;79.63;97742.52;596930;231;37251;-69
2022/09/05 05:06:23;;;;;;;;;;;;;;;21.85;79.51;97747.88;587876;241;66758;-69
2022/09/05 05:09:01;;;;;;;;;;;;;;;21.85;79.56;97753.23;587901;238;63026;-69
2022/09/05 05:11:47;;;;;;;;;;;;;;;21.85;79.52;97752.39;587913;241;66915;-69
2022/09/05 05:14:20;;;;;;;;;;;;;;;21.85;79.51;97753.23;587908;238;66619;-68
2022/09/05 05:16:49;;;;;;;;;;;;;;;21.85;79.51;97758.58;587887;241;63244;-68
2022/09/05 05:19:18;;;;;;;;;;;;;;;21.85;79.50;97760.42;587809;241;65330;-68
2022/09/05 05:21:48;;;;;;;;;;;;;;;21.85;79.46;97768.45;587614;241;67015;-69
2022/09/05 05:24:17;;;;;;;;;;;;;;;21.85;79.44;97766.61;587859;241;65058;-69
2022/09/05 05:26:47;;;;;;;;;;;;;;;21.85;79.43;97761.25;587593;241;65093;-68
2022/09/05 05:29:17;;;;;;;;;;;;;;;21.85;79.50;97760.42;587607;239;67128;-69
2022/09/05 05:31:49;;;;;;;;;;;;;;;21.84;79.47;97764.97;587853;241;65134;-68
2022/09/05 05:34:21;;;;;;;;;;;;;;;21.85;79.46;97765.77;587655;241;67343;-69
2022/09/05 05:36:51;;;;;;;;;;;;;;;21.84;79.43;97762.30;587822;238;64854;-69
2022/09/05 05:39:29;;;;;;;;;;;;;;;21.84;79.43;97762.30;587801;241;63201;-68
2022/09/05 05:41:59;;;;;;;;;;;;;;;21.85;79.43;97763.09;587817;241;67279;-68
2022/09/05 05:44:28;;;;;;;;;;;;;;;21.84;79.42;97759.63;587910;241;66705;-67
2022/09/05 05:46:58;;;;;;;;;;;;;;;21.85;79.42;97768.45;587872;238;63007;-66
2022/09/05 05:49:27;;;;;;;;;;;;;;;21.84;79.16;97767.65;587862;241;67397;-67
2022/09/05 05:52:13;;;;;;;;;;;;;;;21.84;79.11;97761.50;587863;238;65444;-67
2022/09/05 05:54:45;;;;;;;;;;;;;;;21.82;78.89;97760.94;587749;241;65081;-71
2022/09/05 05:57:15;;;;;;;;;;;;;;;21.83;79.21;97767.92;587816;241;65165;-67
2022/09/05 05:59:54;;;;;;;;;;;;;;;21.82;78.81;97771.64;587515;241;65003;-69
2022/09/05 06:02:24;;;;;;;;;;;;;;;21.81;78.85;97765.49;586952;241;62993;-69
2022/09/05 06:05:12;;;;;;;;;;;;;;;21.82;78.65;97774.32;584096;242;67399;-70
2022/09/05 06:07:43;;;;;;;;;;;;;;;21.81;78.55;97778.88;584546;242;65034;-67
2022/09/05 06:10:13;;;;;;;;;;;;;;;21.82;78.64;97774.32;584392;242;65060;-67
2022/09/05 06:12:46;;;;;;;;;;;;;;;21.81;78.35;97772.72;574783;242;64918;-66
2022/09/05 06:15:20;;;;;;;;;;;;;;;21.80;76.91;97774.59;584624;242;67057;-66
2022/09/05 06:18:02;;;;;;;;;;;;;;;21.81;77.85;97776.20;584501;242;65082;-66
2022/09/05 06:20:33;;;;;;;;;;;;;;;21.82;78.12;97772.45;584626;242;67587;-66
2022/09/05 06:23:02;;;;;;;;;;;;;;;21.82;78.19;97772.45;584592;242;66270;-66
2022/09/05 06:25:41;;;;;;;;;;;;;;;21.82;78.15;97764.42;584341;242;62985;-65
2022/09/05 06:28:11;;;;;;;;;;;;;;;21.83;78.22;97768.72;584610;242;65072;-68
2022/09/05 06:30:49;;;;;;;;;;;;;;;21.84;78.25;97766.85;584568;242;65018;-65
2022/09/05 06:33:19;;;;;;;;;;;;;;;21.84;78.33;97770.33;584546;242;62962;-66
2022/09/05 06:35:55;;;;;;;;;;;;;;;21.86;78.31;97773.55;583976;242;67308;-68
2022/09/05 06:38:27;;;;;;;;;;;;;;;21.84;76.03;97767.65;584353;242;65022;-69
2022/09/05 06:41:06;;;;;;;;;;;;;;;21.85;77.40;97774.63;584469;242;62999;-68
2022/09/05 06:43:38;;;;;;;;;;;;;;;21.86;77.72;97768.20;584261;242;67196;-69
2022/09/05 06:46:11;;;;;;;;;;;;;;;21.86;77.82;97762.86;583920;242;66879;-63
2022/09/05 06:48:41;;;;;;;;;;;;;;;21.89;76.93;97769.56;584582;242;63026;-68
2022/09/05 06:51:26;;;;;;;;;;;;;;;21.91;76.83;97768.24;584552;241;65134;-68
2022/09/05 06:53:59;;;;;;;;;;;;;;;21.93;76.96;97770.64;584607;242;67561;-68
2022/09/05 06:56:28;;;;;;;;;;;;;;;21.94;77.08;97765.05;584526;242;63040;-69
2022/09/05 06:59:01;;;;;;;;;;;;;;;21.94;76.75;97767.72;584522;242;65007;-68
2022/09/05 07:01:33;;;;;;;;;;;;;;;21.96;76.51;97762.09;584608;242;65568;-67
2022/09/05 07:04:08;;;;;;;;;;;;;;;21.94;77.32;97764.24;586124;241;65053;-68
2022/09/05 07:06:39;;;;;;;;;;;;;;;21.92;76.50;97767.16;586946;240;65121;-68
2022/09/05 07:09:15;;;;;;;;;;;;;;;21.91;76.83;97773.59;586960;241;65292;-68
2022/09/05 07:11:45;;;;;;;;;;;;;;;21.91;77.04;97770.92;587088;241;63028;-68
2022/09/05 07:14:18;;;;;;;;;;;;;;;21.92;77.08;97769.04;586742;241;65157;-68
2022/09/05 07:16:51;;;;;;;;;;;;;;;21.91;77.02;97770.92;587531;241;67163;-68
2022/09/05 07:19:31;;;;;;;;;;;;;;;21.91;76.78;97770.12;587150;241;64989;-68
2022/09/05 07:22:11;;;;;;;;;;;;;;;21.91;76.94;97778.14;589149;241;67112;-67
2022/09/05 07:24:38;;;;;;;;;;;;;;;21.90;76.81;97771.96;589327;238;67167;-68
2022/09/05 07:27:08;;;;;;;;;;;;;;;21.88;77.01;97770.61;589368;241;62941;-68
2022/09/05 07:29:37;;;;;;;;;;;;;;;21.91;76.80;97772.80;589345;238;66893;-68
2022/09/05 07:32:07;;;;;;;;;;;;;;;21.90;76.86;97766.61;589312;238;66968;-68
2022/09/05 07:34:36;;;;;;;;;;;;;;;21.91;76.90;97772.80;589367;241;62993;-69
2022/09/05 07:37:08;;;;;;;;;;;;;;;21.91;76.67;97767.44;589380;241;67415;-67
2022/09/05 07:39:38;;;;;;;;;;;;;;;21.91;76.23;97770.12;589387;241;66922;-67
2022/09/05 07:42:07;;;;;;;;;;;;;;;21.90;76.18;97771.16;589347;241;65135;-67
2022/09/05 07:44:37;;;;;;;;;;;;;;;21.90;76.58;97771.96;589391;241;67106;-68
2022/09/05 07:47:07;;;;;;;;;;;;;;;21.90;76.46;97768.48;589332;241;67064;-67
2022/09/05 07:49:36;;;;;;;;;;;;;;;21.89;76.29;97759.66;589331;241;62931;-68
2022/09/05 07:52:15;;;;;;;;;;;;;;;21.91;76.51;97767.44;589433;241;65116;-67
2022/09/05 07:54:45;;;;;;;;;;;;;;;21.91;76.69;97767.44;589337;241;67133;-67
2022/09/05 07:57:17;;;;;;;;;;;;;;;21.91;76.73;97765.56;589333;241;66171;-67
2022/09/05 07:59:46;;;;;;;;;;;;;;;21.91;76.77;97762.89;589378;241;65114;-67
2022/09/05 08:02:14;;;;;;;;;;;;;;;21.90;76.75;97761.26;589358;241;67003;-67
2022/09/05 08:04:42;;;;;;;;;;;;;;;21.91;76.70;97762.09;587640;241;63005;-67
2022/09/05 08:07:18;;;;;;;;;;;;;;;21.90;76.68;97755.91;587529;241;67197;-68
2022/09/05 08:09:47;;;;;;;;;;;;;;;21.90;76.67;97752.43;587540;239;67152;-68
2022/09/05 08:12:16;;;;;;;;;;;;;;;21.90;76.78;97755.91;587536;241;65181;-67
2022/09/05 08:14:46;;;;;;;;;;;;;;;21.91;77.01;97757.53;587560;241;67299;-68
2022/09/05 08:17:16;;;;;;;;;;;;;;;21.91;76.75;97762.89;581746;241;64805;-68
2022/09/05 08:19:45;;;;;;;;;;;;;;;21.91;76.92;97765.56;587506;241;63049;-67
2022/09/05 08:22:14;;;;;;;;;;;;;;;21.91;76.94;97762.09;587349;241;67406;-67
2022/09/05 08:24:45;;;;;;;;;;;;;;;21.90;76.92;97750.55;587363;239;67362;-67
2022/09/05 08:27:15;;;;;;;;;;;;;;;21.90;76.67;97761.26;587506;241;65088;-69
2022/09/05 08:29:45;;;;;;;;;;;;;;;21.90;76.51;97763.13;587201;241;67229;-68
2022/09/05 08:32:14;;;;;;;;;;;;;;;21.90;76.81;97763.94;587539;241;65083;-72
2022/09/05 08:34:43;;;;;;;;;;;;;;;21.91;77.03;97767.44;587344;241;63011;-71
2022/09/05 08:37:12;;;;;;;;;;;;;;;21.91;77.20;97773.59;587518;241;67274;-69
2022/09/05 08:39:41;;;;;;;;;;;;;;;21.92;76.77;97769.04;587514;241;67126;-69
2022/09/05 08:42:16;;;;;;;;;;;;;;;21.93;77.37;97784.85;587542;241;65129;-72
2022/09/05 08:44:46;;;;;;;;;;;;;;;21.92;77.34;97780.55;587532;241;66984;-67
2022/09/05 08:47:21;;;;;;;;;;;;;;;21.89;75.72;97775.71;587495;241;64859;-72
2022/09/05 08:49:51;;;;;;;;;;;;;;;21.91;76.99;97781.63;587517;241;65227;-67
2022/09/05 08:52:20;;;;;;;;;;;;;;;21.92;76.60;97779.74;587270;241;65313;-67
2022/09/05 08:55:07;;;;;;;;;;;;;;;21.91;76.88;97786.17;587508;241;67220;-68
2022/09/05 08:57:49;;;;;;;;;;;;;;;21.92;76.90;97793.13;587267;241;65062;-68
2022/09/05 09:00:18;;;;;;;;;;;;;;;21.91;76.97;97786.97;587530;241;67222;-69
2022/09/05 09:03:06;;;;;;;;;;;;;;;21.93;76.99;97797.41;587579;238;66772;-74
2022/09/05 09:05:38;;;;;;;;;;;;;;;21.92;76.96;97791.25;588024;241;63333;-66
2022/09/05 09:08:18;;;;;;;;;;;;;;;21.92;76.90;97790.45;587766;241;66980;-69
2022/09/05 09:10:47;;;;;;;;;;;;;;;21.93;77.26;97797.41;588052;241;64849;-66
2022/09/05 09:13:28;;;;;;;;;;;;;;;21.93;77.32;97795.55;588052;240;62943;-73
2022/09/05 09:15:58;;;;;;;;;;;;;;;21.93;77.45;97797.41;587985;241;64787;-66
2022/09/05 09:18:27;;;;;;;;;;;;;;;21.93;77.58;97789.38;588025;241;66811;-65
2022/09/05 09:21:00;;;;;;;;;;;;;;;21.91;77.68;97783.50;587679;241;65065;-72
2022/09/05 09:23:32;;;;;;;;;;;;;;;21.93;78.29;97781.34;587033;241;64808;-70
2022/09/05 09:26:16;;;;;;;;;;;;;;;21.95;78.21;97780.02;586120;241;66879;-72
2022/09/05 09:28:49;;;;;;;;;;;;;;;21.94;78.39;97786.45;588016;241;63137;-69
2022/09/05 09:31:36;;;;;;;;;;;;;;;21.95;78.39;97780.02;588019;241;67021;-73
2022/09/05 09:34:06;;;;;;;;;;;;;;;21.95;78.30;97779.22;588051;241;66770;-71
2022/09/05 09:36:51;;;;;;;;;;;;;;;21.93;78.05;97774.15;587995;241;65583;-73
2022/09/05 09:39:24;;;;;;;;;;;;;;;21.94;77.95;97783.78;588033;241;65097;-71
2022/09/05 09:41:53;;;;;;;;;;;;;;;21.94;77.99;97783.78;588039;241;67256;-71
2022/09/05 09:44:23;;;;;;;;;;;;;;;21.94;77.78;97788.33;581219;241;63836;-71
2022/09/05 09:46:52;;;;;;;;;;;;;;;21.94;77.67;97780.30;588005;241;65152;-69
2022/09/05 09:49:22;;;;;;;;;;;;;;;21.93;77.70;97776.83;587988;241;67039;-71
2022/09/05 09:51:54;;;;;;;;;;;;;;;21.94;77.52;97780.30;587980;241;65087;-72
2022/09/05 09:54:27;;;;;;;;;;;;;;;21.93;77.55;97784.85;588043;241;67117;-70
2022/09/05 09:56:56;;;;;;;;;;;;;;;21.94;77.42;97783.78;587979;241;67220;-72
2022/09/05 09:59:26;;;;;;;;;;;;;;;21.93;77.43;97787.53;588035;241;63882;-72
2022/09/05 10:02:19;;;;;;;;;;;;;;;21.95;77.48;97779.22;588011;241;67014;-74
2022/09/05 10:04:47;;;;;;;;;;;;;;;21.93;77.52;97776.83;587927;241;71211;-72
2022/09/05 10:07:34;;;;;;;;;;;;;;;21.94;77.62;97781.10;587642;241;62993;-72
2022/09/05 10:13:02;;;;;;;;;;;;;;;21.94;77.62;97782.98;601997;233;37685;-70
2022/09/05 10:15:47;;;;;;;;;;;;;;;21.94;77.66;97781.10;602105;235;63020;-72
2022/09/05 10:18:17;;;;;;;;;;;;;;;21.94;77.70;97780.30;601607;235;67362;-71
2022/09/05 10:20:56;;;;;;;;;;;;;;;21.93;77.70;97782.17;601727;235;66941;-73
2022/09/05 10:26:07;;;;;;;;;;;;;;;21.93;77.71;97782.17;601482;230;37621;-72
2022/09/05 10:28:36;;;;;;;;;;;;;;;21.94;77.63;97782.98;601575;236;64984;-71
2022/09/05 10:31:21;;;;;;;;;;;;;;;21.95;77.31;97771.20;601541;236;65053;-71
2022/09/05 10:33:55;;;;;;;;;;;;;;;21.95;77.49;97769.32;600900;235;64846;-71
2022/09/05 10:36:24;;;;;;;;;;;;;;;21.93;77.66;97768.80;591730;235;66932;-71
2022/09/05 10:38:59;;;;;;;;;;;;;;;21.94;77.80;97766.92;600699;236;63761;-71
2022/09/05 10:41:28;;;;;;;;;;;;;;;21.95;77.96;97773.88;600583;236;67265;-71
2022/09/05 10:44:01;;;;;;;;;;;;;;;21.94;78.07;97762.37;600388;236;67572;-73
2022/09/05 10:46:39;;;;;;;;;;;;;;;21.95;78.21;97772.00;600678;236;65059;-68
2022/09/05 10:49:08;;;;;;;;;;;;;;;21.95;78.35;97769.32;600657;236;67199;-67
2022/09/05 10:51:40;;;;;;;;;;;;;;;21.94;78.43;97767.72;600655;236;66674;-70
2022/09/05 10:54:16;;;;;;;;;;;;;;;21.94;78.57;97756.22;600662;236;65099;-69
2022/09/05 10:56:45;;;;;;;;;;;;;;;21.94;78.60;97757.02;600706;236;67271;-69
2022/09/05 10:59:15;;;;;;;;;;;;;;;21.94;78.68;97754.34;600395;236;67350;-69
2022/09/05 11:01:45;;;;;;;;;;;;;;;21.95;78.65;97750.59;590957;235;65102;-70
2022/09/05 11:04:15;;;;;;;;;;;;;;;21.97;78.53;97752.22;600685;236;65248;-68
2022/09/05 11:06:44;;;;;;;;;;;;;;;21.95;78.58;97747.91;600538;236;67116;-67
2022/09/05 11:09:14;;;;;;;;;;;;;;;21.94;78.21;97748.98;600196;235;63016;-68
2022/09/05 11:11:46;;;;;;;;;;;;;;;21.94;77.77;97748.98;600538;236;65083;-67
2022/09/05 11:14:28;;;;;;;;;;;;;;;21.94;77.71;97754.34;600594;236;67005;-67
2022/09/05 11:16:57;;;;;;;;;;;;;;;21.94;77.70;97754.34;600452;236;63170;-67
2022/09/05 11:19:33;;;;;;;;;;;;;;;21.94;77.37;97751.66;600427;235;67009;-67
2022/09/05 11:22:02;;;;;;;;;;;;;;;21.94;77.37;97750.86;600407;236;67041;-66
2022/09/05 11:24:32;;;;;;;;;;;;;;;21.94;77.42;97751.66;600634;235;62911;-67
2022/09/05 11:27:17;;;;;;;;;;;;;;;21.94;77.49;97740.95;600672;236;67459;-67
2022/09/05 11:29:47;;;;;;;;;;;;;;;21.94;77.49;97742.83;600656;236;65218;-67
2022/09/05 11:32:25;;;;;;;;;;;;;;;21.94;77.42;97745.52;600670;236;65136;-65
2022/09/05 11:35:07;;;;;;;;;;;;;;;21.94;77.24;97743.63;600631;236;65154;-66
2022/09/05 11:37:52;;;;;;;;;;;;;;;21.94;77.23;97742.83;600699;236;64996;-67
2022/09/05 11:40:28;;;;;;;;;;;;;;;21.93;76.99;97739.36;600647;236;65352;-67
2022/09/05 11:43:13;;;;;;;;;;;;;;;21.94;76.97;97735.61;600647;236;67211;-67
2022/09/05 11:45:49;;;;;;;;;;;;;;;21.93;76.99;97736.68;600686;236;67007;-67
2022/09/05 11:48:24;;;;;;;;;;;;;;;21.93;77.14;97728.66;600458;236;65308;-67
2022/09/05 11:51:00;;;;;;;;;;;;;;;21.93;76.92;97728.66;600370;236;67179;-66
2022/09/05 11:53:31;;;;;;;;;;;;;;;21.93;76.93;97736.68;600234;233;67013;-69
2022/09/05 11:56:00;;;;;;;;;;;;;;;21.94;76.90;97734.80;600690;236;63305;-70
2022/09/05 11:58:32;;;;;;;;;;;;;;;21.93;77.14;97730.50;600460;236;67359;-67
2022/09/05 12:01:14;;;;;;;;;;;;;;;21.93;77.14;97734.00;600264;236;67025;-66
2022/09/05 12:03:57;;;;;;;;;;;;;;;21.94;77.11;97732.13;590349;235;65279;-65
2022/09/05 12:06:43;;;;;;;;;;;;;;;21.93;77.21;97727.83;590351;235;67215;-67
2022/09/05 12:09:25;;;;;;;;;;;;;;;21.92;77.02;97724.34;600723;236;64831;-69
2022/09/05 12:12:11;;;;;;;;;;;;;;;21.92;76.91;97727.02;600158;236;65261;-69
2022/09/05 12:14:40;;;;;;;;;;;;;;;21.93;76.77;97714.44;600680;236;65072;-69
2022/09/05 12:17:10;;;;;;;;;;;;;;;21.91;76.84;97714.72;600522;236;67470;-69
2022/09/05 12:19:46;;;;;;;;;;;;;;;21.92;76.90;97707.49;600272;236;65270;-69
2022/09/05 12:22:22;;;;;;;;;;;;;;;21.92;76.85;97713.64;600713;236;67189;-70
2022/09/05 12:25:08;;;;;;;;;;;;;;;21.92;77.02;97710.17;599312;232;66834;-69
2022/09/05 12:27:42;;;;;;;;;;;;;;;21.92;76.93;97707.49;598257;237;65410;-68
2022/09/05 12:30:13;;;;;;;;;;;;;;;21.92;76.91;97710.97;598156;235;67406;-68
2022/09/05 12:32:48;;;;;;;;;;;;;;;21.92;77.09;97710.17;598189;237;67043;-69
2022/09/05 12:35:18;;;;;;;;;;;;;;;21.92;77.28;97710.17;598295;237;63096;-69
2022/09/05 12:38:02;;;;;;;;;;;;;;;21.93;77.19;97707.25;597990;237;66977;-69
2022/09/05 12:40:32;;;;;;;;;;;;;;;21.92;77.47;97705.61;598240;237;67173;-68
2022/09/05 12:43:07;;;;;;;;;;;;;;;21.91;77.58;97704.02;598025;237;63376;-66
2022/09/05 12:45:39;;;;;;;;;;;;;;;21.91;76.77;97706.69;598259;237;65307;-65
2022/09/05 12:48:10;;;;;;;;;;;;;;;21.92;77.01;97704.81;598171;237;65248;-66
2022/09/05 12:50:41;;;;;;;;;;;;;;;21.93;77.22;97712.59;598240;237;63790;-66
2022/09/05 12:53:11;;;;;;;;;;;;;;;21.92;76.95;97710.97;598269;237;65341;-66
2022/09/05 12:55:40;;;;;;;;;;;;;;;21.91;77.04;97706.69;598153;237;67108;-66
2022/09/05 12:58:13;;;;;;;;;;;;;;;21.91;77.18;97708.57;598257;237;65082;-68
2022/09/05 13:00:48;;;;;;;;;;;;;;;21.90;77.07;97707.73;597013;237;67358;-68
2022/09/05 13:03:23;;;;;;;;;;;;;;;21.91;77.04;97701.34;598244;235;65043;-68
2022/09/05 13:05:56;;;;;;;;;;;;;;;21.91;77.41;97698.66;598240;237;65088;-71
2022/09/05 13:08:26;;;;;;;;;;;;;;;21.91;77.33;97701.34;596993;237;65076;-67
2022/09/05 13:10:56;;;;;;;;;;;;;;;21.93;77.74;97695.71;598238;237;67285;-68
2022/09/05 13:13:27;;;;;;;;;;;;;;;21.93;78.00;97696.54;598244;237;63099;-68
2022/09/05 13:15:55;;;;;;;;;;;;;;;21.93;78.22;97706.41;612536;229;65645;-69
2022/09/05 13:18:36;;;;;;;;;;;;;;;21.91;78.21;97698.66;615688;230;67039;-68
2022/09/05 13:21:07;;;;;;;;;;;;;;;21.92;78.37;97700.27;615651;230;63220;-70
2022/09/05 13:23:36;;;;;;;;;;;;;;;21.91;78.59;97701.34;615726;230;67185;-68
2022/09/05 13:26:22;;;;;;;;;;;;;;;21.93;78.78;97698.38;615746;230;64565;-68
2022/09/05 13:28:49;;;;;;;;;;;;;;;21.91;78.91;97695.98;604010;226;63171;-68
2022/09/05 13:31:35;;;;;;;;;;;;;;;21.92;78.90;97694.11;600546;235;64764;-68